Aviation Digital Data Service (ADDS)

Output produced by METARs form (1845 UTC 04 September 2015)
found at http://aviationweather.gov/adds/metars/
 
KPHF 041724Z 0418/0518 07009KT P6SM SCT050 SCT250 
     FM050500 04005KT P6SM OVC025 
     FM050800 05008KT 4SM BR OVC012 
     FM051400 05010G15KT P6SM BKN020